Terminal Aerodrome Forecast
Issued by NWS Blacksburg, VA

Home | Current Version | Previous Version | Text Only | Print | Product List | Glossary On
Versions: 1 2 3 4 5 6 7 8 9 10 11 12 13 14 15 16 17 18 19 20 21 22 23
000
FTUS41 KRNK 251122
TAFLYH
TAF
KLYH 251122Z 2512/2612 00000KT P6SM SCT250
     FM251800 22005KT P6SM SCT060
     FM260000 21003KT P6SM SCT050 BKN120
     FM260900 00000KT 4SM BR BKN080=

USA.gov is the U.S. government's official web portal to all federal, state and local government web resources and services.